Latest Coastal Weather Observations for Horn Island

IDQ60701

Issued at 9:42 am EST Wednesday 1 April 2015 (issued every 10 minutes, with the page automatically refreshed every 10 minutes)

About coastal observations | Map of coastal stations | Coastal observations for QLD | Marine services | Other Formats
Station Details ID: 027058 Name: HORN ISLAND Lat: -10.58 Lon: 142.29 Height: 4.0 m
Data from the previous 72 hours. | See also: Recent months at Horn Island
Date/Time
EST
Temp

°C
Wind Pressure Rain
since 9am
mm
Weather Cloud Vis
km
Sea
Height
m
Swell
Dir
 
Speed
knots
Gust
knots
hPa Trend Height
m
Period
s
Dir
01/09:30am 29.2 ESE 16 22 1011.2 - 0.0 - Partly cloudy 10 - - - -
01/09:00am 29.4 ESE 16 21 1011.0 - 0.2 - Cloudy 10 - - - -
01/08:30am 28.7 ESE 14 19 1011.0 - 0.2 - Partly cloudy 10 - - - -
01/08:00am 28.7 ESE 14 19 1010.7 - 0.2 - Partly cloudy 10 - - - -
01/07:30am 28.0 ESE 14 19 1010.3 - 0.2 - Partly cloudy 10 - - - -
01/07:00am 27.7 ESE 12 17 1009.9 - 0.2 - Partly cloudy 10 - - - -
01/06:30am 27.6 ESE 13 20 1009.7 - 0.2 - Partly cloudy 10 - - - -
01/06:00am 27.6 ESE 12 18 1009.4 - 0.2 - Cloudy 10 - - - -
01/05:30am 27.5 ESE 12 17 1009.3 - 0.2 - Partly cloudy 10 - - - -
01/05:00am 27.5 ESE 13 18 1008.9 - 0.2 - Partly cloudy 10 - - - -
01/04:30am 27.4 ESE 13 20 1008.9 - 0.2 - Partly cloudy 10 - - - -
01/04:00am 27.1 SE 12 15 1008.7 - 0.2 - - 10 - - - -
01/03:30am 26.8 SE 9 13 1008.8 - 0.2 - Partly cloudy 10 - - - -
01/03:00am 26.5 SSE 9 14 1008.9 - 0.2 - Mostly clear 10 - - - -
01/02:30am 26.7 SSE 9 14 1009.3 - 0.2 - Partly cloudy 10 - - - -
01/02:00am 26.5 SSE 10 14 1009.9 - 0.2 - Partly cloudy 10 - - - -
01/01:33am 26.5 SE 9 15 1010.1 - 0.2 - Partly cloudy 10 - - - -
01/01:30am 26.6 SE 11 16 1010.1 - 0.2 - Partly cloudy 10 - - - -
01/01:20am 26.7 ESE 12 19 1010.3 - 0.2 - Partly cloudy 10 - - - -
01/01:00am 26.7 SSE 9 14 1010.3 - 0.2 - Partly cloudy 10 - - - -
01/12:30am 27.1 SE 9 13 1010.9 - 0.2 - Partly cloudy 7 - - - -
01/12:00am 27.8 SE 10 13 1011.0 - 0.0 - Partly cloudy 10 - - - -
 
Date/Time
EST
Temp

°C
Wind Pressure Rain
since 9am
mm
Weather Cloud Vis
km
Sea
Height
m
Swell
Dir
 
Speed
knots
Gust
knots
hPa Trend Height
m
Period
s
Dir
31/11:30pm 27.6 SE 9 11 1011.1 - 0.0 - Partly cloudy 10 - - - -
31/11:00pm 27.7 SE 9 12 1011.3 - 0.0 - Partly cloudy 10 - - - -
31/10:30pm 27.7 SE 10 15 1011.5 - 0.0 - Partly cloudy 10 - - - -
31/10:00pm 27.8 SE 10 14 1011.6 - 0.0 - Partly cloudy 10 - - - -
31/09:30pm 27.6 SE 8 11 1011.4 - 0.0 - Partly cloudy 10 - - - -
31/09:00pm 27.4 SE 8 13 1011.2 - 0.0 - Cloudy 10 - - - -
31/08:30pm 27.9 SE 10 14 1010.8 - 0.0 - - 10 - - - -
31/08:00pm 28.0 SE 9 16 1010.4 - 0.0 - Partly cloudy 10 - - - -
31/07:30pm 28.1 SE 10 14 1010.1 - 0.0 - - 10 - - - -
31/07:00pm 28.2 SE 11 17 1009.8 - 0.0 - - 10 - - - -
31/06:30pm 28.5 SE 13 19 1009.5 - 0.0 - - 10 - - - -
31/06:00pm 28.8 SE 14 22 1009.1 - 0.0 - Mostly clear 10 - - - -
31/05:30pm 29.1 SE 16 23 1008.6 - 0.0 - Partly cloudy 10 - - - -
31/05:00pm 30.0 ESE 16 21 1008.4 - 0.0 - Partly cloudy 10 - - - -
31/04:30pm 29.8 ESE 17 23 1008.4 - 0.0 - - 10 - - - -
31/04:00pm 30.0 ESE 17 23 1008.5 - 0.0 - Partly cloudy 10 - - - -
31/03:30pm 30.7 ESE 17 21 1008.6 - 0.0 - Partly cloudy 10 - - - -
31/03:00pm 30.8 ESE 17 22 1008.5 - 0.0 - Mostly clear 10 - - - -
31/02:30pm 30.2 ESE 18 24 1008.8 - 0.0 - Partly cloudy 10 - - - -
31/02:00pm 30.9 ESE 16 23 1009.2 - 0.0 - Partly cloudy 10 - - - -
31/01:30pm 30.2 ESE 15 21 1009.6 - 0.0 - Cloudy 10 - - - -
31/01:00pm 30.4 SE 15 21 1010.1 - 0.0 - Partly cloudy 10 - - - -
31/12:30pm 30.8 ESE 15 21 1010.6 - 0.0 - Partly cloudy 10 - - - -
31/12:00pm 31.2 ESE 14 19 1011.1 - 0.0 - Partly cloudy 10 - - - -
31/11:30am 30.7 SE 16 21 1011.6 - 0.0 - - 10 - - - -
31/11:00am 30.7 SE 14 21 1011.7 - 0.0 - Partly cloudy 10 - - - -
31/10:30am 30.3 ESE 14 22 1012.0 - 0.0 - Partly cloudy 10 - - - -
31/10:00am 28.9 SSE 10 16 1012.3 - 0.0 - Partly cloudy 10 - - - -
31/09:30am 28.5 SE 12 19 1012.4 - 0.0 - Partly cloudy 10 - - - -
31/09:00am 29.0 SE 9 13 1012.3 - 0.0 - Cloudy 10 - - - -
31/08:30am 28.5 SE 9 14 1012.4 - 0.0 - Partly cloudy 10 - - - -
31/08:00am 28.1 SE 6 11 1012.2 - 0.0 - Partly cloudy 10 - - - -
31/07:30am 27.5 SSE 7 8 1011.9 - 0.0 - Partly cloudy 10 - - - -
31/07:00am 26.6 SSE 5 8 1011.5 - 0.0 - Partly cloudy 10 - - - -
31/06:30am 26.7 SSE 8 10 1011.1 - 0.0 - Partly cloudy 10 - - - -
31/06:00am 26.7 SSE 8 13 1010.7 - 0.0 - Mostly clear 10 - - - -
31/05:30am 26.8 SE 9 14 1010.4 - 0.0 - Partly cloudy 10 - - - -
31/05:00am 27.3 SE 14 19 1010.4 - 0.0 - Partly cloudy 10 - - - -
31/04:30am 27.5 SE 9 13 1010.3 - 0.0 - Partly cloudy 10 - - - -
31/04:00am 27.5 ESE 11 14 1010.3 - 0.0 - Partly cloudy 10 - - - -
31/03:30am 27.4 ESE 10 13 1010.4 - 0.0 - Partly cloudy 10 - - - -
31/03:00am 27.5 ESE 12 17 1010.5 - 0.0 - Mostly clear 10 - - - -
31/02:30am 27.7 ESE 11 14 1010.8 - 0.0 - Partly cloudy 10 - - - -
31/02:00am 27.6 ESE 12 15 1011.2 - 0.0 - Partly cloudy 10 - - - -
31/01:30am 27.7 ESE 13 17 1011.5 - 0.0 - Partly cloudy 10 - - - -
31/01:00am 27.8 ESE 11 15 1011.8 - 0.0 - Partly cloudy 10 - - - -
31/12:30am 27.8 ESE 13 19 1012.0 - 0.0 - Partly cloudy 10 - - - -
31/12:00am 27.9 ESE 14 20 1012.3 - 0.0 - Mostly cloudy 10 - - - -
 
Date/Time
EST
Temp

°C
Wind Pressure Rain
since 9am
mm
Weather Cloud Vis
km
Sea
Height
m
Swell
Dir
 
Speed
knots
Gust
knots
hPa Trend Height
m
Period
s
Dir
30/11:30pm 27.8 ESE 14 19 1012.4 - 0.0 - Partly cloudy 10 - - - -
30/11:00pm 27.9 ESE 13 19 1012.5 - 0.0 - Partly cloudy 10 - - - -
30/10:30pm 27.7 ESE 12 17 1012.6 - 0.0 - Partly cloudy 10 - - - -
30/10:00pm 27.6 ESE 13 17 1012.8 - 0.0 - Partly cloudy 10 - - - -
30/09:30pm 27.7 ESE 13 18 1012.7 - 0.0 - Partly cloudy 10 - - - -
30/09:00pm 27.7 SE 12 18 1012.5 - 0.0 - Mostly clear 10 - - - -
30/08:30pm 27.7 SE 14 19 1012.5 - 0.0 - Partly cloudy 10 - - - -
30/08:00pm 27.7 SE 12 19 1012.1 - 0.0 - - 10 - - - -
30/07:30pm 28.1 ESE 12 18 1011.5 - 0.0 - Partly cloudy 10 - - - -
30/07:00pm 28.2 ESE 12 16 1011.3 - 0.0 - Partly cloudy 10 - - - -
30/06:30pm 28.4 ESE 13 18 1011.0 - 0.0 - Partly cloudy 10 - - - -
30/06:00pm 28.9 ESE 14 19 1010.7 - 0.0 - - 10 - - - -
30/05:30pm 29.3 ESE 13 19 1010.5 - 0.0 - - 10 - - - -
30/05:00pm 29.6 ESE 15 20 1010.3 - 0.0 - Partly cloudy 10 - - - -
30/04:30pm 29.9 ESE 16 21 1010.2 - 0.0 - Partly cloudy 10 - - - -
30/04:00pm 30.2 E 15 22 1010.1 - 0.0 - Partly cloudy 10 - - - -
30/03:30pm 30.4 E 17 24 1010.0 - 0.0 - Partly cloudy 10 - - - -
30/03:00pm 30.2 E 11 17 1010.0 - 0.0 - Cloudy 10 - - - -
30/02:30pm 28.1 E 13 21 1010.3 - 0.0 - Partly cloudy 9 - - - -
30/02:00pm 29.9 E 15 20 1010.5 - 0.0 - Partly cloudy 10 - - - -
30/01:30pm 30.0 E 16 23 1010.8 - 0.0 - Partly cloudy 10 - - - -
30/01:00pm 30.0 ESE 18 22 1011.2 - 0.0 - Partly cloudy 10 - - - -
30/12:30pm 29.3 E 14 20 1011.6 - 0.0 - Partly cloudy 10 - - - -
30/12:00pm 30.2 E 14 21 1011.9 - 0.0 - Cloudy 10 - - - -
30/11:30am 30.2 E 16 22 1012.3 - 0.0 - - 10 - - - -
30/11:00am 30.1 E 16 23 1012.9 - 0.0 - Partly cloudy 10 - - - -
30/10:30am 29.8 E 17 22 1013.1 - 0.0 - - 10 - - - -
30/10:00am 29.7 E 15 19 1013.4 - 0.0 - Partly cloudy 10 - - - -
30/09:30am 29.4 E 14 20 1013.5 - 0.0 - Partly cloudy 10 - - - -
30/09:00am 28.6 E 12 18 1013.4 - 1.6 - Partly cloudy 10 - - - -
30/08:30am 28.8 E 12 18 1013.2 - 1.6 - Partly cloudy 10 - - - -
30/08:00am 28.3 E 10 14 1012.9 - 1.6 - Partly cloudy 10 - - - -
30/07:30am 27.3 E 11 17 1012.5 - 1.6 - Partly cloudy 10 - - - -
30/07:00am 27.1 E 9 11 1012.3 - 1.6 - Partly cloudy 10 - - - -
30/06:30am 26.7 E 8 11 1011.8 - 1.6 - Partly cloudy 10 - - - -
30/06:00am 26.7 E 7 9 1011.5 - 0.8 - Cloudy 10 - - - -
30/05:30am 26.4 SE 5 7 1011.2 - 0.4 - Partly cloudy 10 - - - -
30/05:00am 26.5 E 4 5 1011.1 - 0.2 - Partly cloudy 9 - - - -
30/04:30am 26.7 SSE 5 7 1011.1 - 0.0 - Partly cloudy 10 - - - -
30/04:00am 27.0 S 6 9 1011.0 - 0.0 - Partly cloudy 10 - - - -
30/03:30am 27.4 ESE 8 12 1010.9 - 0.0 - Partly cloudy 10 - - - -
30/03:00am 27.2 ESE 8 11 1011.0 - 0.0 - Partly cloudy 10 - - - -
30/02:30am 27.3 ESE 9 12 1011.2 - 0.0 - Partly cloudy 10 - - - -
30/02:00am 26.9 SE 7 9 1011.2 - 0.0 - Partly cloudy 10 - - - -
30/01:30am 26.6 SE 5 6 1011.6 - 0.0 - Partly cloudy 10 - - - -
30/01:00am 26.4 SSE 5 7 1012.0 - 0.0 - - 10 - - - -
30/12:30am 26.6 SE 6 9 1012.4 - 0.0 - - 10 - - - -
30/12:00am 26.8 SE 7 10 1012.9 - 0.0 - - 10 - - - -
 
Date/Time
EST
Temp

°C
Wind Pressure Rain
since 9am
mm
Weather Cloud Vis
km
Sea
Height
m
Swell
Dir
 
Speed
knots
Gust
knots
hPa Trend Height
m
Period
s
Dir
29/11:30pm 26.6 SSE 6 8 1013.1 - 0.0 - - 10 - - - -
29/11:00pm 26.8 SSE 7 10 1013.3 - 0.0 - - 10 - - - -
29/10:30pm 26.9 SE 9 12 1013.2 - 0.0 - - 10 - - - -
29/10:00pm 27.0 SSE 9 16 1013.1 - 0.0 - - 10 - - - -
29/09:30pm 27.2 SSE 10 15 1013.0 - 0.0 - - 10 - - - -
29/09:00pm 27.3 SSE 11 16 1012.8 - 0.0 - Mostly clear 10 - - - -
29/08:30pm 27.3 SE 10 15 1012.6 - 0.0 - Partly cloudy 10 - - - -
29/08:00pm 27.7 SE 12 16 1012.3 - 0.0 - - 10 - - - -
29/07:30pm 27.7 SE 11 15 1011.8 - 0.0 - - 10 - - - -
29/07:00pm 27.9 SE 12 18 1011.5 - 0.0 - Partly cloudy 10 - - - -
29/06:30pm 28.2 ESE 12 16 1011.1 - 0.0 - - 10 - - - -
29/06:00pm 28.6 ESE 13 19 1010.9 - 0.0 - - 10 - - - -
29/05:30pm 29.2 ESE 13 17 1010.6 - 0.0 - - 10 - - - -
29/05:00pm 29.5 ESE 14 19 1010.4 - 0.0 - - 10 - - - -
29/04:30pm 29.9 ESE 15 20 1010.1 - 0.0 - - 10 - - - -
29/04:00pm 30.4 ESE 13 17 1010.0 - 0.0 - - 10 - - - -
29/03:30pm 30.2 ESE 13 17 1010.0 - 0.0 - - 10 - - - -
29/03:00pm 30.3 ESE 13 18 1010.4 - 0.0 - - 10 - - - -
29/02:30pm 30.0 E 15 21 1010.6 - 0.0 - - 10 - - - -
29/02:00pm 30.2 E 14 18 1010.7 - 0.0 - - 10 - - - -
29/01:30pm 30.3 ESE 16 20 1011.1 - 0.0 - - 10 - - - -
29/01:00pm 30.0 ESE 15 22 1011.5 - 0.0 - Partly cloudy 10 - - - -
29/12:30pm 30.3 ESE 17 21 1011.9 - 0.0 - - 10 - - - -
29/12:00pm 29.8 E 15 20 1012.5 - 0.0 - - 10 - - - -
29/11:30am 29.9 E 15 20 1013.1 - 0.0 - Partly cloudy 10 - - - -
29/11:00am 29.5 ESE 15 21 1013.5 - 0.0 - Partly cloudy 10 - - - -
29/10:30am 29.4 E 16 21 1013.6 - 0.0 - - 10 - - - -
29/10:00am 29.7 ESE 13 19 1013.6 - 0.0 - - 10 - - - -

Other Formats:

Comma delimited format used in spreadsheet applications
http://www.bom.gov.au/fwo/IDQ60701/IDQ60701.94174.axf

JavaScript Object Notation format (JSON) in row-major order
http://www.bom.gov.au/fwo/IDQ60701/IDQ60701.94174.json